Time;durP1;ratioP1;P1;durP2;ratioP2;P2;SDS_P1;SDS_P2;PMS_P1;PMS_P2;Temp;Humidity;BMP_temperature;BMP_pressure;BME280_temperature;BME280_humidity;BME280_pressure;Samples;Min_cycle;Max_cycle;Signal;HPM_P1;HPM_P2
2023/09/30 00:00:08;;;;;;;4.40;3.30;;;;;;;11.60;100.00;98188.22;6198975;28;20255;-58
2023/09/30 00:03:13;;;;;;;5.77;3.07;;;;;;;11.63;100.00;98193.09;6189708;28;20233;-57
2023/09/30 00:06:16;;;;;;;4.40;3.77;;;;;;;11.62;100.00;98190.63;6191759;28;20216;-58
2023/09/30 00:09:18;;;;;;;4.37;3.70;;;;;;;11.65;100.00;98198.19;6192129;28;20216;-57
2023/09/30 00:12:21;;;;;;;4.53;3.70;;;;;;;11.67;100.00;98190.72;6189514;28;20229;-58
2023/09/30 00:15:23;;;;;;;4.63;3.57;;;;;;;11.66;100.00;98189.13;6194286;28;20239;-59
2023/09/30 00:18:28;;;;;;;4.33;3.90;;;;;;;11.66;100.00;98194.47;6194505;28;20289;-57
2023/09/30 00:21:38;;;;;;;4.70;4.13;;;;;;;11.70;100.00;98194.81;6193682;28;20232;-58
2023/09/30 00:24:46;;;;;;;4.40;3.97;;;;;;;11.67;100.00;98188.06;6191102;28;20256;-56
2023/09/30 00:27:49;;;;;;;4.80;4.30;;;;;;;11.69;100.00;98183.31;6173546;28;20239;-58
2023/09/30 00:30:51;;;;;;;5.90;4.23;;;;;;;11.61;100.00;98175.66;6160871;28;20240;-58
2023/09/30 00:33:55;;;;;;;4.97;4.20;;;;;;;11.71;100.00;98183.88;6191571;28;20228;-53
2023/09/30 00:36:58;;;;;;;4.83;4.00;;;;;;;11.62;100.00;98175.47;6195853;28;20280;-58
2023/09/30 00:40:00;;;;;;;5.90;4.23;;;;;;;11.70;100.00;98184.94;6190252;28;20307;-59
2023/09/30 00:43:03;;;;;;;4.30;3.90;;;;;;;11.63;100.00;98176.25;6176392;28;20239;-58
2023/09/30 00:46:29;;;;;;;4.20;3.70;;;;;;;11.56;100.00;98165.69;6192312;28;20240;-56
2023/09/30 00:49:32;;;;;;;6.33;3.70;;;;;;;11.66;100.00;98183.78;6175800;28;20257;-58
2023/09/30 00:52:36;;;;;;;5.90;4.27;;;;;;;11.63;100.00;98171.72;6179357;28;20228;-58
2023/09/30 00:55:39;;;;;;;5.10;4.60;;;;;;;11.65;100.00;98173.34;6185849;28;20310;-55
2023/09/30 00:58:41;;;;;;;3.93;3.60;;;;;;;11.66;100.00;98170.44;6203513;28;20258;-58
2023/09/30 01:01:46;;;;;;;4.77;4.27;;;;;;;11.54;100.00;98159.00;6228758;28;20227;-56
2023/09/30 01:04:49;;;;;;;6.23;4.63;;;;;;;11.69;100.00;98171.84;6199589;28;20673;-58
2023/09/30 01:07:51;;;;;;;5.77;4.53;;;;;;;11.68;100.00;98176.38;6218881;28;20816;-59
2023/09/30 01:10:55;;;;;;;5.33;4.60;;;;;;;11.75;100.00;98173.56;6208224;28;20262;-56
2023/09/30 01:13:57;;;;;;;5.60;4.73;;;;;;;11.82;100.00;98166.22;6214822;28;20260;-58
2023/09/30 01:17:00;;;;;;;7.10;4.93;;;;;;;11.91;100.00;98169.34;6225456;28;20215;-58
2023/09/30 01:20:08;;;;;;;6.63;4.97;;;;;;;11.97;100.00;98179.91;6213759;28;20239;-58
2023/09/30 01:23:11;;;;;;;6.57;4.93;;;;;;;12.03;100.00;98181.59;6218521;28;20319;-57
2023/09/30 01:26:14;;;;;;;5.80;5.10;;;;;;;12.12;100.00;98164.16;6217431;28;20252;-58
2023/09/30 01:29:17;;;;;;;6.00;5.40;;;;;;;12.23;100.00;98175.03;6183635;28;20604;-55
2023/09/30 01:32:19;;;;;;;7.17;5.73;;;;;;;12.25;100.00;98170.25;6221283;28;20223;-55
2023/09/30 01:35:22;;;;;;;6.23;5.20;;;;;;;12.43;100.00;98177.25;6215280;28;20864;-57
2023/09/30 01:38:25;;;;;;;5.27;4.77;;;;;;;12.52;100.00;98173.94;6214170;28;20952;-58
2023/09/30 01:41:28;;;;;;;9.13;5.40;;;;;;;12.62;100.00;98178.63;6216881;28;20300;-58
2023/09/30 01:44:32;;;;;;;5.43;4.90;;;;;;;12.74;100.00;98181.22;6194375;28;20610;-58
2023/09/30 01:47:34;;;;;;;6.27;4.80;;;;;;;12.89;100.00;98184.94;6154115;28;20245;-58
2023/09/30 01:50:39;;;;;;;6.30;5.00;;;;;;;13.09;100.00;98187.09;6212138;28;20224;-55
2023/09/30 01:53:43;;;;;;;7.57;5.93;;;;;;;14.13;100.00;98182.81;6182573;28;20303;-58
2023/09/30 01:56:45;;;;;;;6.80;5.30;;;;;;;14.40;100.00;98182.81;6217380;28;20244;-58
2023/09/30 01:59:48;;;;;;;4.93;4.43;;;;;;;14.77;100.00;98179.41;6198923;28;20236;-59
2023/09/30 02:02:50;;;;;;;4.80;4.07;;;;;;;14.89;100.00;98182.72;6188206;28;20274;-58
2023/09/30 02:05:53;;;;;;;5.43;3.97;;;;;;;14.99;100.00;98182.78;6189322;28;20302;-58
2023/09/30 02:08:56;;;;;;;4.60;4.20;;;;;;;15.14;100.00;98190.94;6182545;28;20243;-59
2023/09/30 02:11:59;;;;;;;8.20;4.50;;;;;;;15.22;100.00;98190.47;6214845;28;20236;-59
2023/09/30 02:15:04;;;;;;;5.57;3.97;;;;;;;15.71;95.64;98194.75;6212524;28;20239;-53
2023/09/30 02:18:06;;;;;;;4.67;4.13;;;;;;;15.74;95.76;98194.25;6221966;28;20232;-58
2023/09/30 02:21:09;;;;;;;5.53;3.60;;;;;;;16.46;85.03;98203.34;6217545;28;20435;-58
2023/09/30 02:24:12;;;;;;;3.57;3.27;;;;;;;17.00;82.82;98208.22;6211059;28;20220;-58
2023/09/30 02:27:15;;;;;;;4.57;3.70;;;;;;;17.23;79.49;98218.41;6217731;28;20243;-59
2023/09/30 02:30:17;;;;;;;4.10;3.53;;;;;;;17.57;79.87;98214.31;6217606;28;20905;-58
2023/09/30 02:33:20;;;;;;;6.90;3.87;;;;;;;18.02;76.11;98216.84;6221612;28;20216;-59
2023/09/30 02:36:22;;;;;;;5.03;3.40;;;;;;;18.12;76.09;98224.09;6215236;28;20232;-59
2023/09/30 02:39:26;;;;;;;6.27;3.47;;;;;;;18.59;73.13;98233.56;6219192;28;20232;-60
2023/09/30 02:42:28;;;;;;;4.77;3.50;;;;;;;18.55;74.60;98227.91;6215873;28;20314;-59
2023/09/30 02:45:31;;;;;;;4.20;3.40;;;;;;;18.79;73.22;98227.22;6214212;28;20239;-59
2023/09/30 02:48:34;;;;;;;4.80;3.87;;;;;;;18.99;72.97;98239.75;6211855;28;20258;-56
2023/09/30 02:51:36;;;;;;;5.37;3.43;;;;;;;18.94;73.49;98237.09;6182911;28;20235;-58
2023/09/30 02:54:38;;;;;;;4.63;3.90;;;;;;;18.94;74.19;98235.22;6215192;28;20257;-59
2023/09/30 02:57:43;;;;;;;3.93;3.33;;;;;;;18.71;76.83;98239.41;6216760;28;20259;-57
2023/09/30 03:00:49;;;;;;;4.03;3.20;;;;;;;18.52;77.66;98235.72;6198560;28;20215;-60
2023/09/30 03:03:51;;;;;;;5.23;3.47;;;;;;;18.45;79.05;98243.34;6204854;28;20281;-59
2023/09/30 03:06:56;;;;;;;7.27;4.77;;;;;;;18.48;79.15;98248.19;6202319;28;20305;-59
2023/09/30 03:10:00;;;;;;;4.40;4.00;;;;;;;18.57;79.12;98241.13;6218248;28;20227;-59
2023/09/30 03:13:02;;;;;;;4.80;3.33;;;;;;;18.49;80.08;98233.63;6224610;28;20239;-59
2023/09/30 03:16:05;;;;;;;5.10;3.97;;;;;;;18.42;80.74;98239.34;6204597;28;20238;-59
2023/09/30 03:19:08;;;;;;;6.60;4.00;;;;;;;18.41;81.29;98223.41;6194387;28;20250;-59
2023/09/30 03:22:10;;;;;;;4.20;3.67;;;;;;;18.36;81.95;98236.91;6222662;28;20309;-56
2023/09/30 03:25:17;;;;;;;5.43;4.30;;;;;;;18.49;81.56;98245.22;6219489;28;20232;-57
2023/09/30 03:28:20;;;;;;;5.03;3.80;;;;;;;18.71;80.19;98235.91;6220415;28;20243;-57
2023/09/30 03:31:23;;;;;;;5.97;4.50;;;;;;;18.66;80.83;98233.22;6218373;28;20243;-59
2023/09/30 03:34:28;;;;;;;7.57;4.27;;;;;;;18.94;79.34;98237.91;6228602;28;20717;-59
2023/09/30 03:37:34;;;;;;;5.33;4.07;;;;;;;18.78;79.62;98229.13;6220436;28;20233;-59
2023/09/30 03:40:38;;;;;;;4.37;3.83;;;;;;;18.75;80.91;98248.56;6214176;28;20231;-58
2023/09/30 03:43:41;;;;;;;7.23;4.30;;;;;;;18.71;80.81;98254.81;6217185;28;20244;-59
2023/09/30 03:46:44;;;;;;;4.07;3.67;;;;;;;18.62;81.89;98254.59;6217227;28;20268;-59
2023/09/30 03:49:48;;;;;;;6.23;5.10;;;;;;;18.67;81.89;98261.81;6224953;28;20722;-59
2023/09/30 03:52:50;;;;;;;9.20;5.13;;;;;;;18.76;81.47;98260.16;6211101;28;20363;-59
2023/09/30 03:55:53;;;;;;;7.30;5.37;;;;;;;18.68;82.44;98277.78;6183150;28;20725;-56
2023/09/30 03:58:55;;;;;;;6.07;5.00;;;;;;;18.62;83.05;98272.66;6217261;28;20228;-59
2023/09/30 04:01:57;;;;;;;7.57;5.20;;;;;;;18.51;84.24;98271.91;6220725;28;20238;-59
2023/09/30 04:05:05;;;;;;;7.33;4.77;;;;;;;18.47;85.04;98287.03;6221696;28;20453;-58
2023/09/30 04:08:17;;;;;;;11.33;7.03;;;;;;;18.38;85.70;98283.31;6217780;28;20714;-59
2023/09/30 04:11:20;;;;;;;10.47;6.10;;;;;;;18.34;86.34;98290.34;6214847;28;20243;-59
2023/09/30 04:14:22;;;;;;;12.87;7.43;;;;;;;18.29;87.19;98302.78;6219899;28;20243;-59
2023/09/30 04:17:26;;;;;;;12.07;7.43;;;;;;;18.25;87.36;98296.31;6216548;28;20278;-60
2023/09/30 04:20:30;;;;;;;15.07;7.40;;;;;;;18.34;87.64;98296.56;6220757;28;20233;-59
2023/09/30 04:23:36;;;;;;;12.90;7.57;;;;;;;18.21;87.29;98299.84;6218071;28;20248;-59
2023/09/30 04:26:40;;;;;;;14.07;8.30;;;;;;;18.09;89.03;98305.56;6208692;28;20229;-59
2023/09/30 04:29:43;;;;;;;14.50;8.87;;;;;;;18.07;89.91;98307.69;6199400;28;20237;-59
2023/09/30 04:32:46;;;;;;;20.63;9.93;;;;;;;18.22;88.72;98313.03;6219229;28;20258;-59
2023/09/30 04:35:51;;;;;;;19.77;10.77;;;;;;;18.13;89.60;98321.97;6223628;28;20231;-58
2023/09/30 04:39:00;;;;;;;15.17;9.00;;;;;;;17.91;91.43;98322.31;6206422;28;20228;-59
2023/09/30 04:42:04;;;;;;;14.63;8.40;;;;;;;17.71;93.88;98318.56;6218927;28;20236;-59
2023/09/30 04:45:07;;;;;;;16.17;9.33;;;;;;;17.57;94.76;98325.56;6213494;28;20225;-60
2023/09/30 04:48:09;;;;;;;18.60;10.07;;;;;;;17.55;94.38;98333.13;6217820;28;20586;-60
2023/09/30 04:51:13;;;;;;;19.13;9.73;;;;;;;17.55;94.04;98330.44;6223262;28;20217;-60
2023/09/30 04:54:15;;;;;;;19.03;10.13;;;;;;;17.57;93.21;98330.97;6218752;28;20563;-59
2023/09/30 04:57:19;;;;;;;17.83;10.93;;;;;;;17.56;93.00;98321.28;6216968;28;20239;-60
2023/09/30 05:00:29;;;;;;;16.33;8.67;;;;;;;17.58;93.78;98346.03;6214401;28;20223;-62
2023/09/30 05:03:31;;;;;;;16.47;9.47;;;;;;;17.45;94.38;98346.59;6197071;28;20231;-57
2023/09/30 05:06:34;;;;;;;15.63;9.07;;;;;;;17.41;94.49;98350.91;6221361;28;20641;-59
2023/09/30 05:09:38;;;;;;;18.63;10.60;;;;;;;17.44;92.47;98342.31;6215197;28;20779;-62
2023/09/30 05:12:45;;;;;;;17.37;9.80;;;;;;;17.54;91.59;98340.41;6210605;28;20235;-63
2023/09/30 05:15:51;;;;;;;18.40;9.47;;;;;;;17.39;92.39;98326.13;6200121;28;20229;-62
2023/09/30 05:18:56;;;;;;;19.03;10.63;;;;;;;17.55;90.88;98335.81;6218818;28;20239;-60
2023/09/30 05:22:03;;;;;;;18.87;11.17;;;;;;;17.47;91.70;98331.78;6214164;28;20224;-57
2023/09/30 05:25:06;;;;;;;22.70;11.17;;;;;;;17.42;90.89;98339.06;6213603;28;20327;-59
2023/09/30 05:28:09;;;;;;;19.63;10.50;;;;;;;17.57;89.27;98349.81;6214369;28;20231;-57
2023/09/30 05:31:11;;;;;;;20.63;10.90;;;;;;;17.49;89.86;98355.78;6211868;28;20246;-60
2023/09/30 05:34:14;;;;;;;23.63;11.30;;;;;;;17.65;87.43;98354.69;6214469;28;20232;-58
2023/09/30 05:37:16;;;;;;;21.53;10.57;;;;;;;17.54;87.72;98358.47;6216095;28;20239;-59
2023/09/30 05:40:31;;;;;;;18.63;10.00;;;;;;;17.53;87.99;98362.22;6216452;28;20235;-59
2023/09/30 05:43:43;;;;;;;18.00;10.33;;;;;;;17.53;87.87;98362.22;6188935;28;20228;-56
2023/09/30 05:46:45;;;;;;;20.23;10.57;;;;;;;17.55;86.94;98365.47;6216014;28;20228;-56
2023/09/30 05:49:48;;;;;;;20.63;10.50;;;;;;;17.59;86.76;98376.50;6214206;28;20253;-56
2023/09/30 05:52:51;;;;;;;22.13;10.90;;;;;;;17.51;87.03;98372.47;6213468;28;20727;-57
2023/09/30 05:55:53;;;;;;;22.60;10.77;;;;;;;17.69;85.20;98382.69;6212889;28;20244;-57
2023/09/30 05:58:56;;;;;;;23.20;10.00;;;;;;;17.67;85.44;98387.53;6214388;28;20234;-57
2023/09/30 06:01:58;;;;;;;17.13;10.33;;;;;;;17.72;83.56;98398.31;6215616;28;20231;-58
2023/09/30 06:05:00;;;;;;;21.10;10.20;;;;;;;17.69;84.67;98398.06;6214624;28;20693;-59
2023/09/30 06:08:04;;;;;;;18.67;10.00;;;;;;;17.65;85.71;98410.47;6219320;28;20719;-56
2023/09/30 06:11:06;;;;;;;17.33;9.23;;;;;;;17.52;86.56;98393.72;6212316;28;20310;-57
2023/09/30 06:14:08;;;;;;;18.73;10.13;;;;;;;17.63;84.75;98416.09;6213861;28;20239;-55
2023/09/30 06:17:11;;;;;;;19.90;10.57;;;;;;;17.58;85.10;98416.09;6214532;28;20318;-58
2023/09/30 06:20:17;;;;;;;21.87;10.43;;;;;;;17.56;85.16;98420.97;6213233;28;20236;-58
2023/09/30 06:23:19;;;;;;;21.87;11.07;;;;;;;17.58;84.15;98429.56;6220499;28;20239;-58
2023/09/30 06:26:24;;;;;;;21.90;10.57;;;;;;;17.63;83.43;98432.25;6211001;28;20230;-58
2023/09/30 06:29:27;;;;;;;18.47;10.20;;;;;;;17.51;84.54;98435.22;6214738;28;20251;-58
2023/09/30 06:32:29;;;;;;;20.80;10.73;;;;;;;17.45;84.29;98439.00;6213448;28;20256;-58
2023/09/30 06:35:37;;;;;;;22.93;11.23;;;;;;;17.39;83.05;98425.78;6215592;28;20219;-57
2023/09/30 06:38:41;;;;;;;18.53;9.97;;;;;;;17.44;84.34;98434.69;6225690;28;20273;-55
2023/09/30 06:41:44;;;;;;;18.07;9.90;;;;;;;17.32;83.37;98412.56;6218021;28;20247;-57
2023/09/30 06:44:47;;;;;;;18.83;9.43;;;;;;;17.38;83.10;98429.56;6201529;28;20322;-58
2023/09/30 06:47:49;;;;;;;18.83;10.03;;;;;;;17.37;83.02;98427.94;6221284;28;20340;-57
2023/09/30 06:50:52;;;;;;;21.13;10.20;;;;;;;17.43;81.81;98434.94;6220698;28;20224;-58
2023/09/30 06:53:54;;;;;;;18.67;10.50;;;;;;;17.50;82.75;98440.91;6207456;28;20317;-57
2023/09/30 06:56:57;;;;;;;21.73;10.77;;;;;;;17.51;82.67;98440.63;6202356;28;20240;-57
2023/09/30 06:59:59;;;;;;;19.20;10.03;;;;;;;17.59;82.11;98439.28;6216592;28;20692;-58
2023/09/30 07:03:02;;;;;;;17.30;10.43;;;;;;;17.58;82.64;98440.34;6216888;28;20231;-58
2023/09/30 07:06:05;;;;;;;20.10;10.20;;;;;;;17.71;82.39;98439.00;6215889;28;20232;-58
2023/09/30 07:09:09;;;;;;;18.10;9.80;;;;;;;17.79;83.10;98427.75;6205451;28;20255;-58
2023/09/30 07:12:15;;;;;;;22.87;11.17;;;;;;;17.95;79.62;98432.03;6177444;28;20212;-57
2023/09/30 07:15:19;;;;;;;17.47;9.77;;;;;;;18.03;81.13;98433.38;6219301;28;20217;-57
2023/09/30 07:18:24;;;;;;;22.63;10.47;;;;;;;18.14;78.62;98424.19;6215640;28;20263;-58
2023/09/30 07:21:27;;;;;;;20.57;10.00;;;;;;;18.27;77.33;98429.03;6216494;28;20239;-56
2023/09/30 07:24:29;;;;;;;17.30;9.70;;;;;;;18.26;77.71;98446.28;6226221;28;20289;-54
2023/09/30 07:27:33;;;;;;;18.13;10.10;;;;;;;18.22;77.51;98434.41;6224144;28;20318;-57
2023/09/30 07:30:36;;;;;;;18.70;9.70;;;;;;;18.25;75.46;98433.88;6218681;28;20710;-60
2023/09/30 07:33:38;;;;;;;18.77;9.97;;;;;;;18.23;76.07;98436.03;6217873;28;20301;-57
2023/09/30 07:36:40;;;;;;;18.93;10.13;;;;;;;18.04;77.45;98446.59;6218236;28;20323;-58
2023/09/30 07:39:43;;;;;;;21.07;10.37;;;;;;;18.00;77.96;98453.59;6218998;28;20311;-57
2023/09/30 07:42:45;;;;;;;17.93;10.40;;;;;;;17.92;79.11;98446.03;6220250;28;20561;-58
2023/09/30 07:45:47;;;;;;;19.03;9.87;;;;;;;17.87;78.58;98445.25;6215496;28;20605;-58
2023/09/30 07:48:50;;;;;;;19.87;10.63;;;;;;;17.92;79.22;98470.31;6213102;28;20302;-58
2023/09/30 07:51:52;;;;;;;18.27;9.50;;;;;;;17.94;78.87;98470.06;6210429;28;20255;-56
2023/09/30 07:54:54;;;;;;;18.50;9.53;;;;;;;17.95;79.93;98477.06;6211240;28;20233;-58
2023/09/30 07:57:59;;;;;;;22.07;10.30;;;;;;;18.16;76.77;98465.16;6200932;28;20224;-58
2023/09/30 08:01:04;;;;;;;17.67;8.90;;;;;;;18.17;78.31;98474.88;6212265;28;20745;-57
2023/09/30 08:04:06;;;;;;;21.73;9.57;;;;;;;18.22;79.03;98479.44;6210508;28;20745;-58
2023/09/30 08:07:09;;;;;;;18.10;9.50;;;;;;;18.27;76.69;98482.97;6213740;28;20229;-59
2023/09/30 08:10:13;;;;;;;19.73;9.87;;;;;;;18.23;77.31;98471.09;6198179;28;21330;-57
2023/09/30 08:13:17;;;;;;;20.37;10.23;;;;;;;18.20;77.99;98474.34;6217426;28;20240;-58
2023/09/30 08:16:19;;;;;;;16.83;9.43;;;;;;;18.41;75.65;98468.91;6216653;28;20234;-53
2023/09/30 08:19:23;;;;;;;22.00;10.13;;;;;;;18.30;76.55;98478.91;6216766;28;20323;-56
2023/09/30 08:22:27;;;;;;;23.47;10.33;;;;;;;18.42;76.21;98495.63;6216407;28;20240;-57
2023/09/30 08:25:30;;;;;;;17.00;8.67;;;;;;;18.34;76.17;98489.97;6216873;28;20228;-57
2023/09/30 08:28:32;;;;;;;18.47;9.23;;;;;;;18.33;77.45;98494.56;6215701;28;20243;-57
2023/09/30 08:31:34;;;;;;;20.00;9.63;;;;;;;18.35;77.53;98496.97;6217687;28;20537;-58
2023/09/30 08:34:37;;;;;;;20.70;9.40;;;;;;;18.38;77.55;98481.06;6216280;28;20224;-57
2023/09/30 08:37:39;;;;;;;20.70;8.80;;;;;;;18.44;76.76;98495.34;6201188;28;20238;-58
2023/09/30 08:40:44;;;;;;;17.47;9.23;;;;;;;18.58;75.93;98491.00;6216623;28;20717;-58
2023/09/30 08:43:46;;;;;;;17.93;9.40;;;;;;;18.72;76.69;98485.88;6210462;28;20275;-58
2023/09/30 08:46:50;;;;;;;16.97;9.47;;;;;;;18.93;74.54;98490.09;6198211;28;20228;-59
2023/09/30 08:49:56;;;;;;;18.60;8.87;;;;;;;19.11;75.34;98495.97;6217273;28;20591;-56
2023/09/30 08:53:00;;;;;;;19.43;8.90;;;;;;;19.23;75.35;98502.66;6216225;28;20731;-59
2023/09/30 08:56:07;;;;;;;18.27;8.50;;;;;;;19.40;72.43;98517.69;6211323;28;20239;-58
2023/09/30 08:59:11;;;;;;;19.30;9.27;;;;;;;19.37;71.96;98494.75;6215276;28;20232;-58
2023/09/30 09:02:13;;;;;;;16.50;8.13;;;;;;;19.40;71.17;98513.09;6186589;28;20243;-57
2023/09/30 09:05:16;;;;;;;14.73;7.10;;;;;;;19.31;70.89;98485.88;6218505;28;20357;-57
2023/09/30 09:08:23;;;;;;;17.23;8.23;;;;;;;19.32;71.56;98490.19;6214635;28;20323;-59
2023/09/30 09:11:26;;;;;;;14.93;8.00;;;;;;;19.33;71.47;98491.81;6196045;28;20713;-57
2023/09/30 09:14:39;;;;;;;17.03;8.00;;;;;;;19.48;70.00;98509.03;6199317;28;20250;-59
2023/09/30 09:17:43;;;;;;;14.93;7.67;;;;;;;19.36;70.82;98512.06;6214247;28;20791;-62
2023/09/30 09:20:45;;;;;;;16.23;8.47;;;;;;;19.36;70.98;98516.63;6216466;28;20271;-59
2023/09/30 09:23:49;;;;;;;16.03;8.03;;;;;;;19.58;70.38;98517.06;6212306;28;20573;-59
2023/09/30 09:26:52;;;;;;;15.70;8.20;;;;;;;19.68;68.96;98524.34;6211609;28;20385;-59
2023/09/30 09:29:54;;;;;;;14.43;7.30;;;;;;;19.56;70.73;98517.34;6208476;28;20240;-58
2023/09/30 09:33:06;;;;;;;17.43;7.87;;;;;;;19.81;68.96;98511.00;6216192;28;20224;-60
2023/09/30 09:36:08;;;;;;;15.17;7.43;;;;;;;19.75;70.94;98516.69;6216205;28;20230;-59
2023/09/30 09:39:13;;;;;;;13.10;6.77;;;;;;;19.83;70.93;98516.91;6215411;28;20220;-58
2023/09/30 09:42:27;;;;;;;15.17;7.47;;;;;;;20.06;72.64;98520.00;6217812;28;20737;-56
2023/09/30 09:45:32;;;;;;;16.97;7.43;;;;;;;20.39;67.02;98517.53;6214765;28;20230;-59
2023/09/30 09:48:38;;;;;;;15.40;7.90;;;;;;;20.30;67.28;98518.19;6216853;28;20274;-58
2023/09/30 09:51:45;;;;;;;15.23;7.70;;;;;;;20.47;67.31;98498.03;6197770;28;20302;-59
2023/09/30 09:54:50;;;;;;;13.73;7.53;;;;;;;20.58;66.22;98511.16;6213663;28;20279;-59
2023/09/30 09:57:52;;;;;;;15.50;7.20;;;;;;;20.64;69.15;98511.94;6218449;28;20251;-61
2023/09/30 10:00:56;;;;;;;28.80;13.47;;;;;;;20.62;64.93;98508.69;6212595;28;20709;-57
2023/09/30 10:03:59;;;;;;;13.10;7.27;;;;;;;20.39;65.99;98512.94;6216275;28;20293;-59
2023/09/30 10:07:02;;;;;;;17.97;7.50;;;;;;;20.29;67.90;98510.31;6192727;28;20605;-59
2023/09/30 10:10:11;;;;;;;13.73;7.30;;;;;;;20.35;68.11;98507.31;6195808;28;20374;-59
2023/09/30 10:13:50;;;;;;;14.53;7.83;;;;;;;20.52;66.35;98497.97;6219103;28;20601;-59
2023/09/30 10:16:52;;;;;;;15.57;7.93;;;;;;;20.62;67.10;98500.56;6215317;28;20315;-58
2023/09/30 10:20:08;;;;;;;15.93;7.87;;;;;;;20.63;65.52;98499.47;6219395;28;20231;-58
2023/09/30 10:23:21;;;;;;;13.10;7.40;;;;;;;20.68;66.05;98512.16;6216367;28;20306;-59
2023/09/30 10:26:23;;;;;;;12.53;7.13;;;;;;;20.67;64.52;98500.50;6201769;28;20270;-59
2023/09/30 10:29:42;;;;;;;14.60;6.83;;;;;;;20.73;63.18;98496.66;6219844;28;20300;-60
2023/09/30 10:32:50;;;;;;;13.60;7.37;;;;;;;20.74;63.99;98511.81;6221919;28;20228;-59
2023/09/30 10:35:54;;;;;;;12.37;7.20;;;;;;;20.73;63.81;98496.66;6205162;28;20606;-58
2023/09/30 10:38:56;;;;;;;12.87;7.27;;;;;;;20.79;65.00;98498.22;6217924;28;20275;-59
2023/09/30 10:41:59;;;;;;;14.03;7.43;;;;;;;20.90;63.79;98496.19;6214452;28;20242;-59
2023/09/30 10:45:01;;;;;;;13.00;7.07;;;;;;;21.08;62.67;98500.03;6210904;28;20246;-59
2023/09/30 10:51:25;;;;;;;15.30;7.87;;;;;;;20.86;62.64;98447.22;6196543;28;20228;-88
2023/09/30 10:54:29;;;;;;;15.23;8.13;;;;;;;20.41;60.79;98361.91;6191313;28;20290;-88
2023/09/30 10:57:31;;;;;;;14.50;7.70;;;;;;;20.96;59.91;98442.75;6184889;28;20225;-87
2023/09/30 11:00:38;;;;;;;13.63;8.00;;;;;;;21.01;60.97;98454.34;5323543;28;10000453;-88
2023/09/30 11:03:42;;;;;;;15.93;7.87;;;;;;;21.22;60.53;98470.31;6181946;28;20228;-88
2023/09/30 11:06:45;;;;;;;15.03;8.03;;;;;;;21.59;59.73;98483.94;6165165;28;20236;-87
2023/09/30 11:09:48;;;;;;;14.10;7.60;;;;;;;21.39;58.25;98467.97;6177515;28;20236;-87
2023/09/30 11:12:55;;;;;;;15.53;8.00;;;;;;;21.45;59.23;98441.56;6202335;28;20232;-87
2023/09/30 11:16:02;;;;;;;12.50;7.93;;;;;;;20.91;59.46;98385.94;6189499;28;20882;-88
2023/09/30 11:19:09;;;;;;;16.17;7.60;;;;;;;21.60;59.54;98477.41;6154826;28;20221;-84
2023/09/30 11:22:12;;;;;;;16.37;8.37;;;;;;;21.13;60.40;98426.81;6150447;28;20327;-86
2023/09/30 11:25:18;;;;;;;18.83;9.07;;;;;;;21.53;57.76;98470.75;6144016;28;20236;-89
2023/09/30 11:28:22;;;;;;;14.50;8.30;;;;;;;21.06;58.74;98407.41;6166617;28;20235;-84
2023/09/30 11:32:03;;;;;;;14.83;7.90;;;;;;;21.05;59.95;98401.19;6187840;28;20245;-92
2023/09/30 11:35:21;;;;;;;15.83;8.43;;;;;;;20.89;58.81;98318.53;6180850;28;20319;-92
2023/09/30 11:38:23;;;;;;;13.80;8.23;;;;;;;21.84;55.04;98439.31;6157242;28;20233;-92
2023/09/30 11:41:33;;;;;;;18.30;9.20;;;;;;;21.32;56.93;98408.69;6205247;28;20306;-89
2023/09/30 11:44:46;;;;;;;15.43;8.03;;;;;;;21.52;58.34;98421.13;6200874;28;20235;-92
2023/09/30 11:47:49;;;;;;;14.60;8.50;;;;;;;21.21;56.31;98358.41;6189163;28;20235;-93
2023/09/30 11:50:52;;;;;;;16.07;9.40;;;;;;;21.97;55.90;98466.78;6203987;28;20608;-90
2023/09/30 11:53:58;;;;;;;16.93;9.27;;;;;;;21.81;56.27;98456.19;6206307;28;20220;-91
2023/09/30 11:57:02;;;;;;;15.70;9.03;;;;;;;21.05;56.45;98351.63;6239671;28;20243;-92
2023/09/30 12:00:13;;;;;;;16.83;9.60;;;;;;;20.89;55.57;98344.81;6227153;28;20550;-90
2023/09/30 12:03:20;;;;;;;19.50;10.17;;;;;;;21.51;55.15;98405.94;6218440;28;20212;-93
2023/09/30 12:06:23;;;;;;;17.50;9.83;;;;;;;21.82;54.52;98468.66;6206165;28;20228;-92
2023/09/30 12:09:36;;;;;;;18.20;10.40;;;;;;;20.15;55.43;98253.19;6202218;28;20272;-92
2023/09/30 12:12:40;;;;;;;18.07;9.80;;;;;;;20.72;55.83;98354.22;6225817;28;20258;-90
2023/09/30 12:15:44;;;;;;;19.77;10.60;;;;;;;20.63;55.44;98374.13;6234182;28;20219;-92
2023/09/30 12:18:46;;;;;;;17.80;9.77;;;;;;;21.19;57.13;98457.38;6228216;28;20231;-92
2023/09/30 12:21:50;;;;;;;17.97;10.00;;;;;;;20.80;57.02;98383.38;6215555;28;20232;-94
2023/09/30 12:24:53;;;;;;;20.73;10.83;;;;;;;21.19;55.78;98433.78;6229426;28;20228;-92
2023/09/30 12:27:58;;;;;;;22.57;11.67;;;;;;;21.25;53.50;98429.09;6229549;28;20234;-92
2023/09/30 12:31:04;;;;;;;18.27;9.83;;;;;;;21.38;55.33;98448.19;6227928;28;20242;-92
2023/09/30 12:34:07;;;;;;;19.87;10.77;;;;;;;21.52;55.43;98474.53;6226438;28;20228;-92
2023/09/30 12:37:09;;;;;;;19.77;10.77;;;;;;;20.07;55.58;98260.03;6201685;28;20243;-89
2023/09/30 12:40:30;;;;;;;21.73;11.10;;;;;;;21.58;53.58;98482.31;6234607;28;20232;-89
2023/09/30 12:43:35;;;;;;;18.87;10.53;;;;;;;21.13;53.78;98430.34;6203181;28;20256;-90
2023/09/30 12:46:39;;;;;;;21.63;11.20;;;;;;;21.23;55.20;98463.78;6200863;28;20223;-89
2023/09/30 12:49:44;;;;;;;20.63;9.90;;;;;;;20.26;56.23;98329.63;6218615;28;20224;-87
2023/09/30 12:52:46;;;;;;;17.50;10.00;;;;;;;20.78;55.84;98406.41;6199204;28;20232;-86
2023/09/30 12:55:48;;;;;;;22.50;11.47;;;;;;;20.95;54.70;98431.13;6196952;28;20488;-87
2023/09/30 12:58:53;;;;;;;20.13;10.90;;;;;;;20.47;55.92;98384.34;6194302;28;20232;-87
2023/09/30 13:01:56;;;;;;;19.83;10.90;;;;;;;21.06;56.14;98488.69;6188633;28;20375;-86
2023/09/30 13:04:58;;;;;;;17.23;9.43;;;;;;;20.58;56.56;98440.75;6194263;28;20590;-88
2023/09/30 13:08:00;;;;;;;22.90;11.27;;;;;;;19.96;56.19;98357.81;6202119;28;20553;-87
2023/09/30 13:11:05;;;;;;;21.47;11.83;;;;;;;20.65;56.01;98467.50;6211834;28;20247;-87
2023/09/30 13:14:08;;;;;;;20.30;11.20;;;;;;;20.46;56.31;98453.88;6176400;28;20236;-87
2023/09/30 13:17:12;;;;;;;22.93;11.70;;;;;;;19.99;57.07;98384.28;6194658;28;20228;-86
2023/09/30 13:20:19;;;;;;;19.80;11.10;;;;;;;20.65;56.63;98472.94;6187005;28;20235;-87
2023/09/30 13:23:21;;;;;;;24.90;11.93;;;;;;;19.81;56.14;98331.75;6202024;28;20228;-87
2023/09/30 13:26:24;;;;;;;22.17;11.60;;;;;;;20.30;56.19;98417.25;6198490;28;20232;-87
2023/09/30 13:29:26;;;;;;;20.23;11.57;;;;;;;20.37;57.50;98436.66;6210836;28;20232;-87
2023/09/30 13:32:27;;;;;;;21.03;11.47;;;;;;;19.93;57.10;98367.28;6197604;28;20319;-87
2023/09/30 13:35:29;;;;;;;22.80;12.10;;;;;;;19.81;57.07;98340.66;6194733;28;20224;-87
2023/09/30 13:38:32;;;;;;;23.07;11.87;;;;;;;20.59;57.67;98445.09;6189687;28;20312;-87
2023/09/30 13:41:35;;;;;;;25.67;12.53;;;;;;;20.82;56.04;98461.63;6211894;28;20318;-85
2023/09/30 13:44:37;;;;;;;23.80;12.53;;;;;;;19.99;56.70;98332.88;6196880;28;20732;-86
2023/09/30 13:47:40;;;;;;;21.73;11.43;;;;;;;20.67;56.49;98446.34;6195420;28;20225;-86
2023/09/30 13:50:43;;;;;;;22.83;12.50;;;;;;;20.13;56.72;98352.75;6191022;28;20468;-86
2023/09/30 13:53:45;;;;;;;19.13;11.37;;;;;;;20.73;58.04;98447.91;6196170;28;20274;-87
2023/09/30 13:56:47;;;;;;;19.93;10.93;;;;;;;20.67;58.53;98434.72;6188609;28;20252;-87
2023/09/30 13:59:49;;;;;;;19.70;10.43;;;;;;;20.61;58.19;98425.88;6194716;28;20320;-90
2023/09/30 14:02:52;;;;;;;21.40;12.17;;;;;;;20.65;59.17;98443.16;6171306;28;20220;-90
2023/09/30 14:05:56;;;;;;;21.00;12.23;;;;;;;20.61;57.21;98439.41;6194307;28;20233;-89
2023/09/30 14:08:58;;;;;;;24.43;12.97;;;;;;;20.68;55.15;98449.88;6190894;28;20229;-86
2023/09/30 14:12:01;;;;;;;25.23;13.30;;;;;;;20.48;56.59;98434.66;6195555;28;20237;-88
2023/09/30 14:15:07;;;;;;;25.03;12.93;;;;;;;20.13;56.33;98379.00;6222111;28;20814;-86
2023/09/30 14:18:11;;;;;;;24.73;13.23;;;;;;;20.33;57.60;98422.06;6192438;28;20566;-85